Time;durP1;ratioP1;P1;durP2;ratioP2;P2;SDS_P1;SDS_P2;PMS_P1;PMS_P2;Temp;Humidity;BMP_temperature;BMP_pressure;BME280_temperature;BME280_humidity;BME280_pressure;Samples;Min_cycle;Max_cycle;Signal;HPM_P1;HPM_P2
2021/07/24 00:00:26;;;;;;;8.40;5.63;;;18.90;71.90;;;;;;6161984;23;20492;-93
2021/07/24 00:02:52;;;;;;;7.63;6.53;;;18.90;72.00;;;;;;6161370;23;20005;-93
2021/07/24 00:05:18;;;;;;;8.75;7.03;;;18.90;72.20;;;;;;6183829;23;20013;-93
2021/07/24 00:07:43;;;;;;;9.50;6.70;;;18.90;72.40;;;;;;6185892;23;20027;-92
2021/07/24 00:10:09;;;;;;;8.30;6.20;;;18.80;72.40;;;;;;6174747;23;20079;-94
2021/07/24 00:12:35;;;;;;;8.77;6.50;;;18.80;72.60;;;;;;6172427;23;19993;-94
2021/07/24 00:15:01;;;;;;;7.63;6.20;;;18.80;73.20;;;;;;6187457;23;20080;-93
2021/07/24 00:17:27;;;;;;;5.82;5.13;;;18.70;73.00;;;;;;6187374;23;19997;-93
2021/07/24 00:19:52;;;;;;;6.80;4.95;;;18.70;73.30;;;;;;6160921;23;20013;-93
2021/07/24 00:22:18;;;;;;;6.70;5.07;;;18.70;73.40;;;;;;6162368;23;20060;-93
2021/07/24 00:24:44;;;;;;;7.32;5.68;;;18.60;73.40;;;;;;6166427;23;20005;-93
2021/07/24 00:27:10;;;;;;;8.50;5.53;;;18.70;73.70;;;;;;6196834;23;20024;-93
2021/07/24 00:29:36;;;;;;;7.78;5.32;;;18.60;73.90;;;;;;6176563;23;19998;-93
2021/07/24 00:32:03;;;;;;;7.32;5.43;;;18.60;73.80;;;;;;6175618;23;20385;-93
2021/07/24 00:34:29;;;;;;;5.35;4.65;;;18.60;73.90;;;;;;6176688;23;20108;-93
2021/07/24 00:36:56;;;;;;;7.88;5.75;;;18.60;74.10;;;;;;6199478;23;20001;-93
2021/07/24 00:39:22;;;;;;;6.38;4.82;;;18.60;74.40;;;;;;6189074;23;20080;-94
2021/07/24 00:42:09;;;;;;;5.10;4.53;;;18.50;74.50;;;;;;6163622;23;20001;-93
2021/07/24 00:44:38;;;;;;;5.68;4.25;;;18.50;75.00;;;;;;6188535;23;19997;-93
2021/07/24 00:47:05;;;;;;;5.25;4.30;;;18.50;74.60;;;;;;6165995;23;20012;-93
2021/07/24 00:49:32;;;;;;;4.93;4.28;;;18.50;75.10;;;;;;6173566;23;20449;-92
2021/07/24 00:51:59;;;;;;;6.85;4.68;;;18.50;75.00;;;;;;6179587;23;19992;-92
2021/07/24 00:54:28;;;;;;;5.78;4.32;;;18.50;75.00;;;;;;6183413;23;20106;-93
2021/07/24 00:56:54;;;;;;;4.55;3.65;;;18.50;75.10;;;;;;6201349;23;20005;-92
2021/07/24 00:59:19;;;;;;;4.38;3.97;;;18.40;75.40;;;;;;6170491;23;20005;-94
2021/07/24 01:01:46;;;;;;;4.32;3.67;;;18.40;75.70;;;;;;6168112;23;20031;-93
2021/07/24 01:04:12;;;;;;;5.15;4.43;;;18.40;75.60;;;;;;6195135;23;20027;-94
2021/07/24 01:06:39;;;;;;;5.53;4.30;;;18.40;75.80;;;;;;6161611;23;20425;-93
2021/07/24 01:09:05;;;;;;;7.22;3.92;;;18.40;76.50;;;;;;6164578;23;19997;-95
2021/07/24 01:11:30;;;;;;;4.50;4.07;;;18.40;76.20;;;;;;6160962;23;20012;-94
2021/07/24 01:13:57;;;;;;;4.40;4.00;;;18.40;76.20;;;;;;6163371;23;20001;-93
2021/07/24 01:16:22;;;;;;;7.93;4.45;;;18.30;76.30;;;;;;6163586;23;20005;-93
2021/07/24 01:18:48;;;;;;;5.82;4.45;;;18.30;76.30;;;;;;6164884;23;20037;-93
2021/07/24 01:21:27;;;;;;;4.80;4.38;;;18.30;76.50;;;;;;6176397;23;20001;-93
2021/07/24 01:23:53;;;;;;;5.07;4.28;;;18.30;76.70;;;;;;6181791;23;20005;-94
2021/07/24 01:26:27;;;;;;;4.72;4.13;;;18.30;76.80;;;;;;6182142;23;20005;-92
2021/07/24 01:28:53;;;;;;;7.40;4.25;;;18.20;76.60;;;;;;6179710;23;20028;-94
2021/07/24 01:31:19;;;;;;;4.90;4.38;;;18.20;76.80;;;;;;6182782;23;20012;-95
2021/07/24 01:33:45;;;;;;;6.88;4.75;;;18.20;77.00;;;;;;6181060;23;20006;-93
2021/07/24 01:36:10;;;;;;;5.63;5.03;;;18.10;77.30;;;;;;6207081;23;20014;-94
2021/07/24 01:38:38;;;;;;;5.20;4.70;;;18.10;78.20;;;;;;6171822;23;20374;-93
2021/07/24 01:41:11;;;;;;;7.68;4.43;;;18.10;77.90;;;;;;6160882;23;20429;-94
2021/07/24 01:43:37;;;;;;;5.30;4.35;;;18.10;78.10;;;;;;6160343;23;20041;-93
2021/07/24 01:46:04;;;;;;;6.00;4.30;;;18.00;78.20;;;;;;6160453;23;20005;-94
2021/07/24 01:54:05;;;;;;;6.88;4.95;;;18.00;78.40;;;;;;6186485;23;20449;-93
2021/07/24 01:56:34;;;;;;;4.88;4.30;;;18.00;78.60;;;;;;6160170;23;20009;-93
2021/07/24 01:58:59;;;;;;;5.05;4.47;;;17.90;78.50;;;;;;6160487;23;20002;-93
2021/07/24 02:01:30;;;;;;;5.38;4.47;;;17.90;78.80;;;;;;6160123;23;20005;-93
2021/07/24 02:04:12;;;;;;;4.95;4.25;;;17.90;79.10;;;;;;6160561;23;20496;-93
2021/07/24 02:06:41;;;;;;;5.88;4.43;;;17.90;80.00;;;;;;6160850;23;20051;-94
2021/07/24 02:09:07;;;;;;;6.93;4.68;;;17.90;79.20;;;;;;6160102;23;19997;-93
2021/07/24 02:11:33;;;;;;;5.15;4.30;;;17.90;79.50;;;;;;6159734;23;20012;-93
2021/07/24 02:13:59;;;;;;;5.45;4.43;;;17.90;79.50;;;;;;6159753;23;20096;-93
2021/07/24 02:16:25;;;;;;;6.28;5.05;;;17.90;79.80;;;;;;6160365;23;20009;-94
2021/07/24 02:18:51;;;;;;;5.68;4.80;;;17.90;79.90;;;;;;6162168;23;20421;-93
2021/07/24 02:21:17;;;;;;;5.53;4.70;;;17.90;80.00;;;;;;6162208;23;20089;-94
2021/07/24 02:23:43;;;;;;;6.88;4.55;;;18.00;80.00;;;;;;6161901;23;20048;-94
2021/07/24 02:26:12;;;;;;;6.47;4.47;;;18.00;80.20;;;;;;6162193;23;20005;-92
2021/07/24 02:28:38;;;;;;;7.28;4.65;;;18.00;80.20;;;;;;6161775;23;20088;-93
2021/07/24 02:31:05;;;;;;;5.78;4.80;;;17.90;80.20;;;;;;6162180;23;20103;-93
2021/07/24 02:33:31;;;;;;;6.70;5.00;;;18.00;80.40;;;;;;6162018;23;20009;-93
2021/07/24 02:35:57;;;;;;;8.55;5.10;;;18.00;80.60;;;;;;6187533;23;20084;-93
2021/07/24 02:38:25;;;;;;;6.28;4.63;;;18.00;80.60;;;;;;6166047;23;20043;-94
2021/07/24 02:40:54;;;;;;;4.65;4.15;;;18.00;80.60;;;;;;6176131;23;20076;-93
2021/07/24 02:43:22;;;;;;;7.07;4.88;;;18.00;80.40;;;;;;6175924;23;20001;-93
2021/07/24 02:45:48;;;;;;;4.60;3.97;;;18.00;80.60;;;;;;6176384;23;20001;-92
2021/07/24 02:48:14;;;;;;;6.07;4.40;;;18.00;80.40;;;;;;6183840;23;20005;-94
2021/07/24 02:50:40;;;;;;;6.88;4.40;;;18.10;80.50;;;;;;6170355;23;20001;-93
2021/07/24 02:53:05;;;;;;;5.40;4.35;;;18.10;80.60;;;;;;6168000;23;20424;-94
2021/07/24 02:55:31;;;;;;;5.13;4.28;;;18.10;80.80;;;;;;6168751;23;20005;-94
2021/07/24 02:57:57;;;;;;;5.70;4.43;;;18.10;80.80;;;;;;6194685;23;20005;-92
2021/07/24 03:00:23;;;;;;;5.65;4.93;;;18.10;80.70;;;;;;6166171;23;20005;-94
2021/07/24 03:02:51;;;;;;;6.25;4.85;;;18.10;80.90;;;;;;6182124;23;20409;-93
2021/07/24 03:05:17;;;;;;;5.45;4.85;;;18.10;81.00;;;;;;6174586;23;20075;-93
2021/07/24 03:07:46;;;;;;;8.35;4.88;;;18.20;81.10;;;;;;6173313;23;20009;-93
2021/07/24 03:10:12;;;;;;;5.85;4.82;;;18.20;81.30;;;;;;6200268;23;20092;-94
2021/07/24 03:12:38;;;;;;;6.18;5.03;;;18.20;81.30;;;;;;6178192;23;20037;-94
2021/07/24 03:15:04;;;;;;;5.25;4.75;;;18.30;81.20;;;;;;6207512;23;20049;-94
2021/07/24 03:17:31;;;;;;;5.88;4.93;;;18.30;81.20;;;;;;6181011;23;20009;-94
2021/07/24 03:19:58;;;;;;;4.93;4.43;;;18.40;81.20;;;;;;6180822;23;20009;-94
2021/07/24 03:22:24;;;;;;;6.22;4.20;;;18.50;81.10;;;;;;6179312;23;20001;-93
2021/07/24 03:24:50;;;;;;;5.30;4.38;;;18.50;81.00;;;;;;6180151;23;20016;-93
2021/07/24 03:27:20;;;;;;;6.10;4.97;;;18.60;81.10;;;;;;6179287;23;20025;-93
2021/07/24 03:29:48;;;;;;;5.35;4.85;;;18.60;81.10;;;;;;6176803;23;20004;-94
2021/07/24 03:32:20;;;;;;;5.82;4.68;;;18.70;81.20;;;;;;6172228;23;20005;-94
2021/07/24 03:34:46;;;;;;;6.38;5.10;;;18.80;81.10;;;;;;6175443;23;20024;-93
2021/07/24 03:37:11;;;;;;;5.35;4.75;;;18.80;81.10;;;;;;6168500;23;20005;-94
2021/07/24 03:39:40;;;;;;;5.20;4.45;;;18.90;81.10;;;;;;6161990;23;20066;-93
2021/07/24 03:42:09;;;;;;;5.53;5.03;;;19.00;81.10;;;;;;6162064;23;20024;-93
2021/07/24 03:44:34;;;;;;;6.72;5.78;;;19.00;81.10;;;;;;6188238;23;20007;-94
2021/07/24 03:47:00;;;;;;;7.15;5.25;;;19.10;81.10;;;;;;6161535;23;20032;-94
2021/07/24 03:49:28;;;;;;;7.90;5.93;;;19.20;80.90;;;;;;6161695;23;20001;-93
2021/07/24 03:51:54;;;;;;;5.93;5.32;;;19.30;80.90;;;;;;6161830;23;19997;-94
2021/07/24 03:54:22;;;;;;;5.82;5.18;;;19.30;80.80;;;;;;6161328;23;20001;-94
2021/07/24 03:56:51;;;;;;;5.90;5.30;;;19.40;80.60;;;;;;6160888;23;20004;-93
2021/07/24 03:59:17;;;;;;;7.50;4.93;;;19.50;80.50;;;;;;6161584;23;20009;-94
2021/07/24 04:01:53;;;;;;;5.88;4.82;;;19.60;80.50;;;;;;6162101;23;20016;-93
2021/07/24 04:04:19;;;;;;;6.38;5.30;;;19.60;80.10;;;;;;6161053;23;20437;-94
2021/07/24 04:06:49;;;;;;;6.85;5.13;;;19.70;80.10;;;;;;6160894;23;20009;-93
2021/07/24 04:09:18;;;;;;;5.60;5.10;;;19.80;79.80;;;;;;6162147;23;20109;-93
2021/07/24 04:11:44;;;;;;;5.78;5.00;;;19.80;79.50;;;;;;6160966;23;20128;-94
2021/07/24 04:14:10;;;;;;;7.30;5.40;;;20.00;79.30;;;;;;6161795;23;20001;-94
2021/07/24 04:16:36;;;;;;;6.75;5.68;;;20.00;79.00;;;;;;6161011;23;20009;-93
2021/07/24 04:19:03;;;;;;;6.63;4.97;;;20.10;78.70;;;;;;6161557;23;20055;-93
2021/07/24 04:21:35;;;;;;;6.07;5.47;;;20.20;78.40;;;;;;6162396;23;20373;-93
2021/07/24 04:24:01;;;;;;;6.65;5.55;;;20.30;78.00;;;;;;6163625;23;20021;-93
2021/07/24 04:26:27;;;;;;;5.85;5.25;;;20.30;77.80;;;;;;6161568;23;20001;-93
2021/07/24 04:28:53;;;;;;;6.65;5.57;;;20.40;77.40;;;;;;6161660;23;20095;-94
2021/07/24 04:31:18;;;;;;;7.43;5.18;;;20.50;77.00;;;;;;6167620;23;20060;-95
2021/07/24 04:33:44;;;;;;;6.88;5.53;;;20.50;76.80;;;;;;6169677;23;20005;-95
2021/07/24 04:36:13;;;;;;;5.95;5.13;;;20.60;76.60;;;;;;6176095;23;19990;-94
2021/07/24 04:38:40;;;;;;;6.30;5.70;;;20.60;76.20;;;;;;6182839;23;19989;-92
2021/07/24 04:41:05;;;;;;;6.70;6.07;;;20.70;76.10;;;;;;6184188;23;20013;-93
2021/07/24 04:43:31;;;;;;;6.00;5.40;;;20.70;75.90;;;;;;6182538;23;20056;-93
2021/07/24 04:45:57;;;;;;;7.10;6.05;;;20.70;76.00;;;;;;6177708;23;20024;-94
2021/07/24 04:48:22;;;;;;;6.40;5.30;;;20.80;76.00;;;;;;6169343;23;20009;-94
2021/07/24 04:50:52;;;;;;;6.47;5.55;;;20.90;75.90;;;;;;6165601;23;20001;-93
2021/07/24 04:53:18;;;;;;;5.72;5.18;;;20.90;75.60;;;;;;6163242;23;20009;-93
2021/07/24 04:55:46;;;;;;;5.28;4.78;;;21.00;75.30;;;;;;6162225;23;20008;-95
2021/07/24 04:58:12;;;;;;;6.03;5.10;;;21.10;75.20;;;;;;6162320;23;20052;-93
2021/07/24 05:00:40;;;;;;;6.68;5.00;;;21.10;75.00;;;;;;6187910;23;20001;-94
2021/07/24 05:03:06;;;;;;;4.95;4.43;;;21.20;75.00;;;;;;6190323;23;20036;-94
2021/07/24 05:05:35;;;;;;;7.22;5.43;;;21.30;74.90;;;;;;6161926;23;20015;-94
2021/07/24 05:08:01;;;;;;;10.10;5.70;;;21.40;74.90;;;;;;6162406;23;20009;-94
2021/07/24 05:10:27;;;;;;;7.32;5.88;;;21.50;74.80;;;;;;6164874;23;20005;-94
2021/07/24 05:12:53;;;;;;;7.03;6.18;;;21.50;74.70;;;;;;6166814;23;20452;-96
2021/07/24 05:15:19;;;;;;;7.03;5.68;;;21.60;74.70;;;;;;6166698;23;20011;-94
2021/07/24 05:17:45;;;;;;;7.45;5.63;;;21.60;74.70;;;;;;6164012;23;20012;-95
2021/07/24 05:20:11;;;;;;;8.10;6.75;;;21.60;74.70;;;;;;6164152;23;20433;-94
2021/07/24 05:22:37;;;;;;;6.35;5.63;;;21.70;74.80;;;;;;6172804;23;20025;-94
2021/07/24 05:25:03;;;;;;;5.97;5.30;;;21.70;74.80;;;;;;6166308;23;20394;-93
2021/07/24 05:27:28;;;;;;;7.55;6.28;;;21.80;74.70;;;;;;6165793;23;20005;-92
2021/07/24 05:29:54;;;;;;;5.40;4.90;;;21.90;74.30;;;;;;6164787;23;20001;-94
2021/07/24 05:32:20;;;;;;;6.78;5.30;;;21.90;74.30;;;;;;6164746;23;20020;-93
2021/07/24 05:34:45;;;;;;;5.80;5.20;;;22.00;74.10;;;;;;6169448;23;20008;-94
2021/07/24 05:37:11;;;;;;;6.53;5.57;;;22.00;74.00;;;;;;6163766;23;20012;-94
2021/07/24 05:39:37;;;;;;;7.40;6.70;;;22.10;73.90;;;;;;6171804;23;20005;-94
2021/07/24 05:42:03;;;;;;;7.25;6.55;;;22.20;73.70;;;;;;6179824;23;20096;-93
2021/07/24 05:44:28;;;;;;;7.57;6.07;;;22.20;73.20;;;;;;6180572;23;20005;-94
2021/07/24 05:46:54;;;;;;;7.15;6.07;;;22.20;73.10;;;;;;6180745;23;20016;-93
2021/07/24 05:49:20;;;;;;;6.57;5.85;;;22.30;72.70;;;;;;6178345;23;20033;-93
2021/07/24 05:51:46;;;;;;;8.07;5.95;;;22.30;72.50;;;;;;6179546;23;20009;-93
2021/07/24 05:54:12;;;;;;;6.65;5.95;;;22.30;72.50;;;;;;6171260;23;20299;-94
2021/07/24 05:56:38;;;;;;;6.43;5.22;;;22.30;72.10;;;;;;6163544;23;20033;-93
2021/07/24 05:59:04;;;;;;;6.38;5.63;;;22.40;72.20;;;;;;6164118;23;20009;-93
2021/07/24 06:01:30;;;;;;;10.48;6.25;;;22.50;71.90;;;;;;6163831;23;20052;-94
2021/07/24 06:03:56;;;;;;;6.97;5.53;;;22.60;71.50;;;;;;6192326;23;20013;-92
2021/07/24 06:06:22;;;;;;;6.35;5.53;;;22.60;71.20;;;;;;6162357;23;20462;-93
2021/07/24 06:08:47;;;;;;;5.13;4.63;;;22.70;70.90;;;;;;6161742;23;20421;-93
2021/07/24 06:11:16;;;;;;;5.70;5.10;;;22.90;71.00;;;;;;6166468;23;20048;-93
2021/07/24 06:13:42;;;;;;;6.22;5.63;;;23.00;70.50;;;;;;6169197;23;20020;-93
2021/07/24 06:16:11;;;;;;;7.45;6.18;;;23.10;69.30;;;;;;6162010;23;20005;-93
2021/07/24 06:18:37;;;;;;;7.50;6.25;;;23.20;68.30;;;;;;6159745;23;20005;-93
2021/07/24 06:21:03;;;;;;;6.95;6.30;;;23.20;68.70;;;;;;6158966;23;20088;-93
2021/07/24 06:23:30;;;;;;;7.28;5.43;;;23.20;67.20;;;;;;6159780;23;20380;-93
2021/07/24 06:25:56;;;;;;;6.00;5.25;;;23.20;67.40;;;;;;6165850;23;20000;-94
2021/07/24 06:28:24;;;;;;;6.85;6.15;;;23.20;67.30;;;;;;6161186;23;20059;-94
2021/07/24 06:31:01;;;;;;;6.22;5.55;;;23.20;67.00;;;;;;6166555;23;20025;-92
2021/07/24 06:33:27;;;;;;;6.90;6.20;;;23.30;66.80;;;;;;6179372;23;20005;-93
2021/07/24 06:35:53;;;;;;;6.70;6.03;;;23.30;66.60;;;;;;6183496;23;20057;-94
2021/07/24 06:38:19;;;;;;;7.80;6.80;;;23.30;66.50;;;;;;6180184;23;20013;-93
2021/07/24 06:40:44;;;;;;;8.70;6.57;;;23.30;66.40;;;;;;6182754;23;20012;-92
2021/07/24 06:43:10;;;;;;;7.80;6.80;;;23.30;66.40;;;;;;6203263;23;20003;-94
2021/07/24 06:45:37;;;;;;;6.82;5.88;;;23.30;66.60;;;;;;6167922;23;20071;-95
2021/07/24 06:48:11;;;;;;;7.70;6.88;;;23.40;67.10;;;;;;6167900;23;20065;-91
2021/07/24 06:50:40;;;;;;;7.22;6.28;;;23.40;66.90;;;;;;6169539;23;20001;-92
2021/07/24 06:53:06;;;;;;;7.05;6.35;;;23.50;66.30;;;;;;6168331;23;20009;-93
2021/07/24 06:55:34;;;;;;;7.70;6.93;;;23.60;66.20;;;;;;6165584;23;20013;-93
2021/07/24 06:58:03;;;;;;;8.25;6.20;;;23.60;66.40;;;;;;6164537;23;20084;-93
2021/07/24 07:00:32;;;;;;;9.05;7.13;;;23.70;66.30;;;;;;6164219;23;20015;-92
2021/07/24 07:03:02;;;;;;;8.70;5.75;;;23.70;66.10;;;;;;6161660;23;20313;-94
2021/07/24 07:05:32;;;;;;;10.02;6.30;;;23.80;66.30;;;;;;6163661;23;19997;-91
2021/07/24 07:08:02;;;;;;;7.70;7.00;;;23.90;66.10;;;;;;6166004;23;20081;-94
2021/07/24 07:10:34;;;;;;;6.50;5.88;;;23.90;65.40;;;;;;6169058;23;20349;-94
2021/07/24 07:13:14;;;;;;;9.50;7.30;;;23.90;65.20;;;;;;6199141;23;20048;-94
2021/07/24 07:15:43;;;;;;;8.32;7.40;;;23.90;64.80;;;;;;6175699;23;20088;-93
2021/07/24 07:18:09;;;;;;;7.53;6.60;;;23.90;64.70;;;;;;6172251;23;20005;-93
2021/07/24 07:20:35;;;;;;;7.20;5.82;;;24.00;64.70;;;;;;6190726;23;20005;-93
2021/07/24 07:23:02;;;;;;;9.35;6.43;;;24.00;64.80;;;;;;6165700;23;20417;-94
2021/07/24 07:25:27;;;;;;;8.15;6.97;;;24.10;64.60;;;;;;6165993;23;20012;-93
2021/07/24 07:27:53;;;;;;;9.13;6.30;;;24.10;64.10;;;;;;6162789;23;19997;-91
2021/07/24 07:30:19;;;;;;;7.95;6.80;;;24.10;64.20;;;;;;6190813;23;20001;-91
2021/07/24 07:32:45;;;;;;;7.40;6.45;;;24.10;63.20;;;;;;6166341;23;20005;-93
2021/07/24 07:35:14;;;;;;;9.25;6.70;;;24.10;63.50;;;;;;6163619;23;20089;-93
2021/07/24 07:37:48;;;;;;;8.35;5.43;;;24.20;62.70;;;;;;6165779;23;20028;-94
2021/07/24 07:40:14;;;;;;;8.48;6.20;;;24.30;62.30;;;;;;6167410;23;20001;-94
2021/07/24 07:42:40;;;;;;;9.75;6.80;;;24.30;62.50;;;;;;6169955;23;20037;-93
2021/07/24 07:45:06;;;;;;;8.88;6.13;;;24.40;62.70;;;;;;6197426;23;20005;-93
2021/07/24 07:47:34;;;;;;;6.88;5.68;;;24.40;61.80;;;;;;6170526;23;20092;-94
2021/07/24 07:50:00;;;;;;;6.65;5.68;;;24.50;61.50;;;;;;6169534;23;20064;-93
2021/07/24 07:52:27;;;;;;;5.55;5.05;;;24.60;61.50;;;;;;6166076;23;20001;-94
2021/07/24 07:54:53;;;;;;;6.97;6.18;;;24.70;61.60;;;;;;6166782;23;20016;-94
2021/07/24 07:57:19;;;;;;;9.15;6.80;;;24.80;61.00;;;;;;6167804;23;20012;-92
2021/07/24 07:59:44;;;;;;;6.53;5.18;;;24.90;60.00;;;;;;6169582;23;20469;-93
2021/07/24 08:02:10;;;;;;;6.32;5.50;;;24.90;60.00;;;;;;6167540;23;20004;-94
2021/07/24 08:04:36;;;;;;;6.93;5.68;;;25.00;59.50;;;;;;6172312;23;20052;-94
2021/07/24 08:07:05;;;;;;;7.38;5.80;;;25.00;59.00;;;;;;6171827;23;20004;-93
2021/07/24 08:09:30;;;;;;;7.13;5.43;;;25.00;58.40;;;;;;6196821;23;19993;-94
2021/07/24 08:11:56;;;;;;;6.35;5.07;;;25.00;58.40;;;;;;6172132;23;20024;-93
2021/07/24 08:14:25;;;;;;;6.50;5.80;;;25.00;58.90;;;;;;6149144;23;20340;-93
2021/07/24 08:16:56;;;;;;;7.68;5.90;;;25.20;58.90;;;;;;6151615;23;20035;-93
2021/07/24 08:19:26;;;;;;;5.45;4.95;;;25.30;58.00;;;;;;6153529;23;20024;-92
2021/07/24 08:21:52;;;;;;;6.90;5.05;;;25.40;58.00;;;;;;6148443;23;20005;-93
2021/07/24 08:24:18;;;;;;;6.63;5.63;;;25.50;57.90;;;;;;6142990;23;20089;-93
2021/07/24 08:26:44;;;;;;;6.13;5.53;;;25.60;56.40;;;;;;6143040;23;20057;-92
2021/07/24 08:29:15;;;;;;;8.32;5.97;;;25.70;56.20;;;;;;6145271;23;19986;-95
2021/07/24 08:31:41;;;;;;;8.63;5.68;;;25.70;55.50;;;;;;6143038;23;19997;-94
2021/07/24 08:34:06;;;;;;;6.57;5.38;;;25.70;55.00;;;;;;6142250;23;20009;-94
2021/07/24 08:36:32;;;;;;;6.05;5.43;;;25.80;54.90;;;;;;6154505;23;20018;-91
2021/07/24 08:38:58;;;;;;;7.25;5.80;;;25.80;54.80;;;;;;6156518;23;20091;-91
2021/07/24 08:41:24;;;;;;;6.07;4.93;;;25.80;54.60;;;;;;6157772;23;19994;-90
2021/07/24 08:43:49;;;;;;;6.82;5.72;;;25.90;55.40;;;;;;6154363;23;20056;-94
2021/07/24 08:46:19;;;;;;;6.22;5.63;;;25.90;55.30;;;;;;6148595;23;20006;-92
2021/07/24 08:48:45;;;;;;;6.80;5.05;;;26.00;54.80;;;;;;6149151;23;20013;-93
2021/07/24 08:51:51;;;;;;;5.47;4.90;;;26.10;55.30;;;;;;6150732;23;20006;-91
2021/07/24 08:54:29;;;;;;;7.10;5.80;;;26.20;54.90;;;;;;6124652;23;20018;-94
2021/07/24 08:57:33;;;;;;;6.47;5.88;;;26.30;54.50;;;;;;6142014;23;20016;-92
2021/07/24 09:00:51;;;;;;;6.57;5.32;;;26.40;53.20;;;;;;6138985;23;20006;-93
2021/07/24 09:04:27;;;;;;;6.60;5.80;;;26.40;54.60;;;;;;6165218;23;20013;-92
2021/07/24 09:06:58;;;;;;;6.63;5.00;;;26.40;53.20;;;;;;6162102;23;20059;-93
2021/07/24 09:09:29;;;;;;;6.53;5.10;;;26.40;53.70;;;;;;6135977;23;20001;-91
2021/07/24 09:12:16;;;;;;;6.05;5.20;;;26.40;54.00;;;;;;6138969;23;19986;-94
2021/07/24 09:15:15;;;;;;;5.53;4.72;;;26.50;53.70;;;;;;6160425;23;20004;-96
2021/07/24 09:17:48;;;;;;;6.97;5.20;;;26.50;53.80;;;;;;6134111;23;20022;-92
2021/07/24 09:20:23;;;;;;;5.55;5.05;;;26.50;53.50;;;;;;6134746;23;20024;-93
2021/07/24 09:22:53;;;;;;;6.10;4.85;;;26.50;53.30;;;;;;6113562;23;20017;-95
2021/07/24 09:25:25;;;;;;;6.88;6.18;;;26.60;53.80;;;;;;6138714;23;20015;-93
2021/07/24 09:28:11;;;;;;;6.50;5.75;;;26.60;52.50;;;;;;6162656;23;20021;-91
2021/07/24 09:30:45;;;;;;;5.90;5.30;;;26.60;52.00;;;;;;6138205;23;20002;-93
2021/07/24 09:33:20;;;;;;;6.43;5.78;;;26.60;52.30;;;;;;6137238;23;20112;-95
2021/07/24 09:35:56;;;;;;;7.80;5.60;;;26.50;52.60;;;;;;6135143;23;20160;-94
2021/07/24 09:38:32;;;;;;;5.65;5.05;;;26.40;52.80;;;;;;6136306;23;20060;-93
2021/07/24 09:41:01;;;;;;;4.97;4.47;;;26.50;53.50;;;;;;6135606;23;20422;-93
2021/07/24 09:44:05;;;;;;;6.28;4.95;;;26.60;53.20;;;;;;6162580;23;19997;-92
2021/07/24 09:46:34;;;;;;;5.47;4.75;;;26.70;52.30;;;;;;6123812;23;20020;-93
2021/07/24 09:49:18;;;;;;;5.32;4.82;;;26.80;52.30;;;;;;6133450;23;20061;-94
2021/07/24 09:51:46;;;;;;;6.10;5.00;;;26.90;51.50;;;;;;6135951;23;20440;-94
2021/07/24 09:54:55;;;;;;;4.88;4.32;;;26.90;51.80;;;;;;6136568;23;20013;-94
2021/07/24 09:57:41;;;;;;;5.13;4.63;;;26.90;51.00;;;;;;6137636;23;20009;-95
2021/07/24 10:04:26;;;;;;;6.85;4.53;;;27.00;51.50;;;;;;6048724;23;20011;-94
2021/07/24 10:07:49;;;;;;;6.35;5.28;;;27.10;51.50;;;;;;6019051;23;20086;-96
2021/07/24 10:14:20;;;;;;;5.85;5.25;;;27.20;51.00;;;;;;5898933;24;20113;-91
2021/07/24 10:17:37;;;;;;;5.38;4.88;;;27.30;50.70;;;;;;6016692;23;20012;-91
2021/07/24 10:20:30;;;;;;;7.22;5.72;;;27.40;51.10;;;;;;6017291;23;20019;-92
2021/07/24 10:41:29;;;;;;;4.75;4.25;;;27.30;49.50;;;;;;5973271;24;20004;-91
2021/07/24 10:44:34;;;;;;;5.75;4.68;;;27.40;48.90;;;;;;5839866;24;20011;-92
2021/07/24 11:05:03;;;;;;;;;;;;;;;;;;;;;
2021/07/24 11:12:06;;;;;;;;;;;;;;;;;;;;;
2021/07/24 11:15:22;;;;;;;9.00;5.40;;;27.80;50.40;;;;;;5777898;24;20097;-95
2021/07/24 11:18:31;;;;;;;6.75;5.40;;;28.00;52.10;;;;;;5847896;24;20018;-93
2021/07/24 11:22:01;;;;;;;6.65;4.45;;;28.10;50.30;;;;;;5852797;24;20435;-95
2021/07/24 11:25:10;;;;;;;5.97;5.38;;;28.20;49.70;;;;;;5816127;24;20007;-93
2021/07/24 11:27:48;;;;;;;;;;;;;;;;;;;;;
2021/07/24 11:38:01;;;;;;;;;;;;;;;;;;;;;
2021/07/24 16:06:12;;;;;;;3.65;3.30;;;36.50;35.00;;;;;;6100803;23;20049;-93
2021/07/24 16:08:38;;;;;;;4.75;3.38;;;36.40;35.10;;;;;;6073319;23;20065;-92
2021/07/24 16:11:04;;;;;;;3.92;3.63;;;36.30;35.40;;;;;;6073473;23;20445;-93
2021/07/24 16:13:34;;;;;;;3.92;3.55;;;35.80;35.40;;;;;;6073632;23;20003;-93
2021/07/24 16:16:00;;;;;;;4.10;3.50;;;35.20;35.70;;;;;;6074441;23;19998;-93
2021/07/24 16:18:26;;;;;;;3.90;3.50;;;34.60;36.00;;;;;;6073644;23;20085;-94
2021/07/24 16:20:51;;;;;;;4.28;3.88;;;34.00;36.40;;;;;;6073958;23;20009;-93
2021/07/24 16:23:20;;;;;;;3.92;3.53;;;33.30;36.70;;;;;;6073777;23;20010;-92
2021/07/24 16:25:46;;;;;;;7.38;3.33;;;32.60;37.30;;;;;;6074709;23;20029;-93
2021/07/24 16:28:12;;;;;;;3.70;3.40;;;32.00;37.80;;;;;;6075908;23;20037;-95
2021/07/24 16:30:38;;;;;;;4.40;3.40;;;31.50;38.40;;;;;;6074135;23;20062;-93
2021/07/24 16:33:05;;;;;;;4.57;3.47;;;31.10;39.00;;;;;;6073357;23;20002;-92
2021/07/24 16:35:31;;;;;;;4.38;3.67;;;30.70;39.40;;;;;;6073593;23;20489;-92
2021/07/24 16:37:57;;;;;;;3.63;3.28;;;30.40;39.90;;;;;;6073323;23;20334;-92
2021/07/24 16:40:24;;;;;;;4.72;3.70;;;30.10;40.20;;;;;;6074239;23;20009;-92
2021/07/24 16:42:50;;;;;;;5.30;4.07;;;29.80;40.40;;;;;;6073656;23;20418;-92
2021/07/24 16:45:16;;;;;;;4.07;3.67;;;29.60;40.90;;;;;;6074762;23;20057;-92
2021/07/24 16:47:41;;;;;;;4.45;4.05;;;29.40;41.10;;;;;;6074449;23;20058;-92
2021/07/24 16:50:08;;;;;;;4.40;3.58;;;29.20;41.50;;;;;;6073694;23;20442;-92
2021/07/24 16:52:33;;;;;;;3.83;3.42;;;28.90;41.70;;;;;;6097175;23;20065;-92
2021/07/24 16:54:59;;;;;;;4.18;3.78;;;28.70;42.00;;;;;;6073607;23;20011;-94
2021/07/24 16:57:25;;;;;;;3.88;3.40;;;28.50;42.30;;;;;;6073571;23;20010;-92
2021/07/24 16:59:50;;;;;;;5.38;4.15;;;28.30;42.70;;;;;;6073756;23;19999;-93
2021/07/24 17:02:17;;;;;;;4.20;3.80;;;28.10;42.90;;;;;;6077490;23;20014;-93
2021/07/24 17:04:43;;;;;;;4.78;3.80;;;27.90;43.20;;;;;;6075116;23;20427;-93
2021/07/24 17:07:09;;;;;;;5.32;4.05;;;27.70;43.40;;;;;;6075403;23;20009;-92
2021/07/24 17:09:34;;;;;;;4.72;3.97;;;27.60;43.90;;;;;;6074568;23;20085;-93
2021/07/24 17:12:00;;;;;;;4.63;3.90;;;27.40;43.90;;;;;;6073715;23;20008;-93
2021/07/24 17:14:26;;;;;;;5.68;4.13;;;27.30;44.30;;;;;;6073955;23;20034;-93
2021/07/24 17:16:52;;;;;;;4.50;4.05;;;27.20;44.50;;;;;;6074424;23;20014;-92
2021/07/24 17:19:19;;;;;;;5.18;4.30;;;27.00;44.80;;;;;;6073786;23;20013;-92
2021/07/24 17:21:45;;;;;;;4.90;4.03;;;27.00;45.30;;;;;;6073671;23;20065;-93
2021/07/24 17:24:11;;;;;;;5.25;4.38;;;26.80;45.50;;;;;;6098424;23;20097;-92
2021/07/24 17:26:36;;;;;;;4.85;4.15;;;26.70;45.70;;;;;;6073893;23;20325;-92
2021/07/24 17:29:02;;;;;;;6.70;4.70;;;26.70;45.90;;;;;;6073973;23;20363;-92
2021/07/24 17:31:28;;;;;;;5.70;4.10;;;26.50;46.30;;;;;;6073644;23;20045;-92
2021/07/24 17:33:56;;;;;;;5.00;4.05;;;26.50;46.60;;;;;;6073610;23;20002;-92
2021/07/24 17:36:21;;;;;;;5.32;4.13;;;26.30;46.60;;;;;;6073498;23;19998;-92
2021/07/24 17:38:51;;;;;;;5.68;4.50;;;26.20;46.90;;;;;;6073694;23;20017;-92
2021/07/24 17:41:18;;;;;;;4.72;4.22;;;26.10;47.30;;;;;;6097718;23;20093;-93
2021/07/24 17:43:49;;;;;;;4.97;4.32;;;26.00;47.50;;;;;;6073470;23;20470;-93
2021/07/24 17:46:15;;;;;;;5.13;4.63;;;25.90;47.80;;;;;;6097488;23;20006;-93
2021/07/24 17:48:43;;;;;;;5.05;4.53;;;25.80;48.00;;;;;;6097371;23;20094;-92
2021/07/24 17:51:10;;;;;;;5.72;4.82;;;25.70;48.40;;;;;;6097396;23;20006;-93
2021/07/24 17:53:38;;;;;;;5.45;4.63;;;25.60;48.70;;;;;;6073255;23;20018;-93
2021/07/24 17:56:04;;;;;;;4.97;4.47;;;25.60;49.00;;;;;;6073636;23;20426;-93
2021/07/24 17:58:30;;;;;;;5.15;4.65;;;25.50;49.30;;;;;;6073316;23;20006;-93
2021/07/24 18:00:57;;;;;;;6.38;4.72;;;25.40;49.60;;;;;;6073283;23;20007;-94
2021/07/24 18:03:23;;;;;;;5.63;4.72;;;25.30;49.80;;;;;;6097152;23;20070;-93
2021/07/24 18:05:49;;;;;;;5.65;4.40;;;25.20;50.20;;;;;;6073311;23;20422;-92
2021/07/24 18:08:15;;;;;;;5.03;4.50;;;25.10;50.50;;;;;;6073232;23;20342;-93
2021/07/24 18:10:40;;;;;;;6.40;4.85;;;25.00;50.90;;;;;;6073351;23;20053;-93
2021/07/24 18:13:08;;;;;;;6.18;5.38;;;25.00;51.40;;;;;;6073650;23;20006;-92
2021/07/24 18:15:34;;;;;;;7.07;5.38;;;24.80;51.60;;;;;;6099937;23;20013;-93
2021/07/24 18:18:00;;;;;;;7.18;5.70;;;24.80;51.90;;;;;;6097191;23;20379;-93
2021/07/24 18:20:26;;;;;;;7.13;5.57;;;24.70;52.20;;;;;;6097083;23;20065;-93
2021/07/24 18:22:53;;;;;;;7.03;5.72;;;24.60;52.60;;;;;;6096935;23;20382;-93
2021/07/24 18:25:19;;;;;;;6.53;5.85;;;24.50;52.90;;;;;;6096828;23;20043;-93
2021/07/24 18:27:46;;;;;;;6.82;6.13;;;24.50;53.40;;;;;;6096919;23;20456;-93
2021/07/24 18:30:12;;;;;;;6.88;6.03;;;24.40;53.80;;;;;;6099439;23;20423;-93